D/T METAR WX W/DIR W/SPE G/SPE TEMP DEWP
25/02/20 15:20 EGHI 251520Z 26014KT 240V300 7000 SHRA SCT016 BKN023 05/03 Q0999 RESHGR SHRA W (260°) 16.1mph 5°C 3°C
25/02/20 14:50 EGHI 251450Z 24006KT 220V280 9999 VCSH SCT030 08/03 Q0999 VCSH WSW (240°) 6.9mph 8°C 3°C
25/02/20 14:20 EGHI 251420Z 25008KT 220V280 9999 -SHRA SCT030 07/03 Q0999 -SHRA WSW (250°) 9.2mph 7°C 3°C
25/02/20 13:50 EGHI 251350Z 27010KT 230V300 9999 -SHRA SCT034 08/01 Q1000 -SHRA W (270°) 11.5mph 8°C 1°C
25/02/20 13:20 EGHI 251320Z 26009KT 230V290 9999 SCT030 09/02 Q1000 W (260°) 10.4mph 9°C 2°C
25/02/20 12:50 EGHI 251250Z 26011KT 220V300 9999 SCT027 08/02 Q1001 W (260°) 12.7mph 8°C 2°C
25/02/20 12:20 EGHI 251220Z 27009KT 230V300 9999 FEW028 BKN032 08/02 Q1001 W (270°) 10.4mph 8°C 2°C
25/02/20 11:50 EGHI 251150Z 26010KT 220V300 9999 SCT029 08/01 Q1001 W (260°) 11.5mph 8°C 1°C
25/02/20 11:20 EGHI 251120Z 26007KT 210V300 9999 FEW025 08/01 Q1002 W (260°) 8.1mph 8°C 1°C
25/02/20 10:50 EGHI 251050Z 28007KT 260V320 9999 FEW019 07/03 Q1002 W (280°) 8.1mph 7°C 3°C
25/02/20 10:20 EGHI 251020Z 28010G20KT 230V320 9999 -SHRA FEW018 BKN020 08/03 Q1002 -SHRA W (280°) 11.5mph 23.0mph 8°C 3°C
25/02/20 09:20 EGHI 250920Z 25009KT 220V280 9999 FEW018 08/03 Q1003 WSW (250°) 10.4mph 8°C 3°C
25/02/20 08:50 EGHI 250850Z 24010KT 200V270 9999 FEW020 07/03 Q1003 WSW (240°) 11.5mph 7°C 3°C
25/02/20 08:20 EGHI 250820Z 24007KT 9999 FEW020 07/03 Q1003 WSW (240°) 8.1mph 7°C 3°C
25/02/20 07:50 EGHI 250750Z 25007KT 9999 FEW024 06/03 Q1004 WSW (250°) 8.1mph 6°C 3°C
25/02/20 07:20 EGHI 250720Z 24006KT 210V270 9999 FEW024 06/03 Q1004 WSW (240°) 6.9mph 6°C 3°C
25/02/20 06:50 EGHI 250650Z 23007KT 9999 FEW026 06/03 Q1004 SW (230°) 8.1mph 6°C 3°C
25/02/20 06:20 EGHI 250620Z 24007KT 210V270 9999 FEW026 SCT045 06/03 Q1005 WSW (240°) 8.1mph 6°C 3°C
25/02/20 05:50 EGHI 250550Z 23007KT 9999 FEW026 06/03 Q1005 SW (230°) 8.1mph 6°C 3°C
24/02/20 22:20 EGHI 242220Z 26006KT 230V290 9999 SCT042 08/04 Q1007 W (260°) 6.9mph 8°C 4°C
24/02/20 21:50 EGHI 242150Z 27007KT 230V300 9999 SCT035 09/04 Q1008 W (270°) 8.1mph 9°C 4°C
24/02/20 21:20 EGHI 242120Z 26008KT 9999 SCT031 09/04 Q1008 W (260°) 9.2mph 9°C 4°C
24/02/20 20:50 EGHI 242050Z 27006G16KT 220V310 9999 SCT025 10/04 Q1008 W (270°) 6.9mph 18.4mph 10°C 4°C
24/02/20 20:20 EGHI 242020Z 27010G21KT 230V300 9999 SCT025 10/05 Q1007 W (270°) 11.5mph 24.2mph 10°C 5°C
24/02/20 19:50 EGHI 241950Z 26012KT 240V300 9999 FEW027 SCT038 10/05 Q1007 W (260°) 13.8mph 10°C 5°C
24/02/20 19:20 EGHI 241920Z 26010KT 230V290 9999 VCSH FEW020 SCT038 10/05 Q1007 VCSH W (260°) 11.5mph 10°C 5°C
24/02/20 18:50 EGHI 241850Z 26013KT 220V290 9999 VCSH FEW015 BKN032 11/06 Q1007 VCSH W (260°) 15.0mph 11°C 6°C
24/02/20 17:50 EGHI 241750Z 24011KT 9999 VCSH FEW015 BKN025 12/09 Q1006 VCSH WSW (240°) 12.7mph 12°C 9°C
24/02/20 17:20 EGHI 241720Z 24009KT 9999 -DZ SCT011 12/09 Q1006 -DZ WSW (240°) 10.4mph 12°C 9°C
24/02/20 16:50 EGHI 241650Z 24014KT 210V270 9999 VCSH BKN010 12/10 Q1006 VCSH WSW (240°) 16.1mph 12°C 10°C
24/02/20 16:20 EGHI 241620Z 24015G26KT 210V270 9999 VCSH BKN010 12/10 Q1006 VCSH WSW (240°) 17.3mph 29.9mph 12°C 10°C
24/02/20 15:20 EGHI 241520Z 23014G26KT 9000 DZ BKN008 11/10 Q1007 DZ SW (230°) 16.1mph 29.9mph 11°C 10°C
24/02/20 14:50 EGHI 241450Z 23017G28KT 200V260 9000 DZ BKN008 11/10 Q1007 DZ SW (230°) 19.6mph 32.2mph 11°C 10°C
24/02/20 14:20 EGHI 241420Z 23016KT 200V260 9999 VCSH BKN009 11/10 Q1007 VCSH SW (230°) 18.4mph 11°C 10°C
24/02/20 13:50 EGHI 241350Z 23018G28KT 200V260 9999 -RADZ BKN010 11/09 Q1008 -RA -DZ SW (230°) 20.7mph 32.2mph 11°C 9°C
24/02/20 13:20 EGHI 241320Z 23018G30KT 9000 -RADZ BKN010 11/09 Q1008 -RA -DZ SW (230°) 20.7mph 34.5mph 11°C 9°C
24/02/20 12:50 EGHI 241250Z 23016G26KT 200V270 5000 -RADZ BKN010 11/09 Q1009 -RA -DZ SW (230°) 18.4mph 29.9mph 11°C 9°C
24/02/20 12:20 EGHI 241220Z 23016G30KT 200V270 4000 -RADZ BKN010 11/09 Q1009 -RA -DZ SW (230°) 18.4mph 34.5mph 11°C 9°C
24/02/20 11:50 EGHI 241150Z 23017KT 200V260 4000 -RADZ BKN010 11/09 Q1009 -RA -DZ SW (230°) 19.6mph 11°C 9°C
24/02/20 11:20 EGHI 241120Z 23018G29KT 200V260 6000 -RADZ BKN010 11/09 Q1010 -RA -DZ SW (230°) 20.7mph 33.4mph 11°C 9°C
24/02/20 10:50 EGHI 241050Z 23020KT 200V260 9999 -DZ BKN013 11/09 Q1010 -DZ SW (230°) 23.0mph 11°C 9°C
24/02/20 10:20 EGHI 241020Z 23020G33KT 9999 -DZ BKN013 11/09 Q1011 -DZ SW (230°) 23.0mph 38.0mph 11°C 9°C
24/02/20 09:50 EGHI 240950Z 24020G34KT 200V260 9999 -DZ BKN015 11/09 Q1011 -DZ WSW (240°) 23.0mph 39.1mph 11°C 9°C
24/02/20 09:20 EGHI 240920Z 23020KT 190V260 9999 -RADZ BKN011 11/09 Q1011 -RA -DZ SW (230°) 23.0mph 11°C 9°C
24/02/20 08:50 EGHI 240850Z 23021G34KT 8000 -RADZ BKN009 11/09 Q1011 -RA -DZ SW (230°) 24.2mph 39.1mph 11°C 9°C
24/02/20 08:20 EGHI 240820Z 22019G32KT 5000 -RADZ BKN009 11/09 Q1012 -RA -DZ SW (220°) 21.9mph 36.8mph 11°C 9°C
24/02/20 07:50 EGHI 240750Z 23021G34KT 200V260 9999 -DZ BKN014 11/09 Q1012 -DZ SW (230°) 24.2mph 39.1mph 11°C 9°C
24/02/20 07:20 EGHI 240720Z 22024G35KT 9999 -DZ BKN013 11/09 Q1012 -DZ SW (220°) 27.6mph 40.3mph 11°C 9°C